Buoy 62910

sailwx.info

Track history (hours):
 
Tides and Currents Weather Stations Pressure Air Temp Water Temp Dewpoint Dewpoint Depression Visibility Wind Speed Wind Dir Waves Ship Positions

Drifting buoy 62910

Last reported at 2015-May-03 19:51 UTC. Time now 2015-May-03 21:56 UTC.
Position N 42°14' E 005°55'.

Water temperature 15.9 ° C

Date/timePositionNaut miles runAvg speedWind from/ knotsBaromVisibWave heightAir tempDewpointWater temp
2015-May-03 19:51N 42°14' E 005°55'0 0.0 15.9
2015-May-03 19:46N 42°14' E 005°55'1 1.1 15.9
2015-May-03 18:56N 42°13' E 005°54'0 0.6 16.0
2015-May-03 18:12N 42°13' E 005°55'0 0.0 16.0
2015-May-03 18:03N 42°13' E 005°55'1 0.5 16.0
2015-May-03 16:05N 42°12' E 005°54'2 0.6 16.0
2015-May-03 12:49N 42°10' E 005°55'1 0.3 16.2
2015-May-03 10:58N 42°09' E 005°55'0 7.3 15.7
2015-May-03 10:54N 42°09' E 005°55'0 0.2 15.7
2015-May-03 09:15N 42°08' E 005°55'0 0.4 15.4
2015-May-03 08:26N 42°08' E 005°55'0 2.3 15.3
2015-May-03 08:20N 42°08' E 005°55'1 0.5 15.3
2015-May-03 06:26N 42°07' E 005°54'0 0.7 15.3
2015-May-03 06:22N 42°07' E 005°54'0 0.6 15.3
2015-May-03 06:03N 42°07' E 005°54'1 0.6 15.3
2015-May-03 04:10N 42°06' E 005°54'1 6.3 15.3
2015-May-03 03:59N 42°05' E 005°53'0 0.0 15.3
2015-May-03 03:02N 42°05' E 005°53'0 0.9 15.4
2015-May-03 02:59N 42°05' E 005°53'213.0 15.4
2015-May-03 02:52N 42°03' E 005°54'3 0.5 15.4
2015-May-02 21:50N 42°01' E 005°56'0 0.5 15.5
2015-May-02 20:57N 42°01' E 005°56'0 7.0 15.5
2015-May-02 20:53N 42°01' E 005°56'0 0.3 15.5
2015-May-02 20:00N 42°00' E 005°56'1 0.3 15.5
2015-May-02 18:11N 42°00' E 005°57'1 0.7 15.6
2015-May-02 17:02N 41°60' E 005°56'2 0.7 15.6
2015-May-02 14:07N 41°58' E 005°55'1 8.1 15.5
2015-May-02 14:02N 41°57' E 005°55'0 0.0 15.5
2015-May-02 13:00N 41°57' E 005°55'1 0.8 15.3
2015-May-02 12:01N 41°57' E 005°56'0 0.5 15.2
2015-May-02 11:12N 41°56' E 005°55'0 0.1
2015-May-02 05:52N 41°56' E 005°56'2 2.4 14.7
2015-May-02 05:06N 41°54' E 005°56'0 0.0 14.7
2015-May-02 04:52N 41°54' E 005°56'2 1.3 14.7
2015-May-02 03:10N 41°56' E 005°55'2 0.4 14.7
2015-May-01 22:04N 41°55' E 005°53'2 0.4 14.8
2015-May-01 15:58N 41°54' E 005°51'1 0.9 15.0
2015-May-01 15:16N 41°54' E 005°51'1 1.5 15.0
2015-May-01 14:51N 41°54' E 005°52'2 2.9 15.0
2015-May-01 14:14N 41°54' E 005°49'1 0.1 15.0
2015-May-01 10:00N 41°54' E 005°49'1 0.8 14.9
2015-May-01 09:05N 41°53' E 005°48'1 1.2 14.9
2015-May-01 08:12N 41°53' E 005°47'0 0.0 14.8
2015-May-01 07:05N 41°53' E 005°47'1 0.6 14.8
2015-May-01 06:10N 41°52' E 005°46'0 5.5 14.8
2015-May-01 06:05N 41°52' E 005°46'0 0.0 14.8
2015-May-01 05:33N 41°52' E 005°46'0 0.6 14.8
2015-May-01 05:26N 41°52' E 005°46'1 0.7 14.8
2015-May-01 04:26N 41°51' E 005°46'0 0.2 14.8
2015-May-01 03:54N 41°51' E 005°46'0 1.1 14.8
2015-May-01 03:47N 41°51' E 005°46'0 0.0 14.8
2015-May-01 03:40N 41°51' E 005°46'0 0.3 14.9
2015-May-01 03:20N 41°51' E 005°46'0 0.0 14.9
2015-May-01 03:17N 41°51' E 005°46'2 0.6 14.9
2015-Apr-30 23:56N 41°50' E 005°44'0 0.1 14.9
2015-Apr-30 20:52N 41°49' E 005°45'0 0.4 15.1
2015-Apr-30 19:54N 41°49' E 005°44'0 0.0 15.2
2015-Apr-30 19:46N 41°49' E 005°44'1 1.0 15.2
2015-Apr-30 19:06N 41°49' E 005°43'0 0.0 15.2
2015-Apr-30 18:09N 41°49' E 005°43'0 1.4 15.3
2015-Apr-30 17:52N 41°49' E 005°44'0 0.9 15.3
2015-Apr-30 17:20N 41°49' E 005°43'0 0.0 15.3
2015-Apr-30 16:29N 41°49' E 005°43'1 2.5 15.3
2015-Apr-30 16:14N 41°49' E 005°43'0 0.0 15.3
2015-Apr-30 16:07N 41°49' E 005°43'0 2.7 15.3
2015-Apr-30 16:00N 41°49' E 005°42'0 0.0 15.3
2015-Apr-30 15:02N 41°49' E 005°42'0 0.4 15.3
2015-Apr-30 14:30N 41°49' E 005°42'0 1.8 15.2
2015-Apr-30 14:25N 41°49' E 005°42'2 1.5 15.2
2015-Apr-30 13:23N 41°49' E 005°40'0 0.0
2015-Apr-30 13:18N 41°49' E 005°40'1 0.5 15.0
2015-Apr-30 11:35N 41°48' E 005°39'0 0.0 14.9
2015-Apr-30 11:07N 41°48' E 005°39'0 0.6 14.8
2015-Apr-30 10:19N 41°48' E 005°39'0 0.0 14.7
2015-Apr-30 09:26N 41°48' E 005°39'1 0.8 14.7
2015-Apr-30 08:37N 41°48' E 005°40'0 0.0 14.7
2015-Apr-30 07:46N 41°48' E 005°40'0 0.0 14.6
2015-Apr-30 07:33N 41°48' E 005°40'0 0.3 14.6
2015-Apr-30 06:21N 41°48' E 005°40'0 0.0 14.6
2015-Apr-30 06:01N 41°48' E 005°40'0 0.0 14.6
2015-Apr-30 05:58N 41°48' E 005°40'0 5.4 14.6
2015-Apr-30 05:54N 41°49' E 005°40'0 0.2 14.6
2015-Apr-30 04:15N 41°49' E 005°40'1 1.0 14.7
2015-Apr-30 02:56N 41°50' E 005°40'0 0.0 14.7
2015-Apr-30 01:58N 41°50' E 005°40'2 1.3 14.7
2015-Apr-30 00:08N 41°52' E 005°37'0 0.0 14.8
2015-Apr-29 22:49N 41°52' E 005°37'0 0.0 14.9
2015-Apr-29 22:04N 41°52' E 005°37'1 1.4 14.9
2015-Apr-29 21:03N 41°52' E 005°35'1 0.2 15.0
2015-Apr-29 18:02N 41°52' E 005°35'0 0.2 15.3
2015-Apr-29 16:59N 41°52' E 005°35'0 1.3
2015-Apr-29 16:55N 41°52' E 005°35'0 0.5 15.6
2015-Apr-29 16:11N 41°51' E 005°34'0 0.0 15.6
2015-Apr-29 16:06N 41°51' E 005°34'0 0.3 15.6
2015-Apr-29 15:13N 41°52' E 005°35'3 0.5 15.4
2015-Apr-29 09:02N 41°55' E 005°35'0 0.0 14.5
2015-Apr-29 08:00N 41°55' E 005°35'1 0.3 14.4
2015-Apr-29 04:54N 41°55' E 005°34'0 0.6 14.3
2015-Apr-29 04:47N 41°55' E 005°34'2 1.3 14.3
2015-Apr-29 03:08N 41°57' E 005°33'0 0.0 14.3
2015-Apr-29 02:07N 41°57' E 005°33'0 0.0 14.2
2015-Apr-29 02:03N 41°57' E 005°33'210.6 14.2
2015-Apr-29 01:54N 41°59' E 005°32'1 0.1
2015-Apr-28 19:47N 41°59' E 005°32'0 0.3 14.2
2015-Apr-28 19:08N 41°59' E 005°33'1 9.5 14.3
2015-Apr-28 18:59N 42°00' E 005°33'1 0.9 14.3
2015-Apr-28 18:13N 42°01' E 005°32'6 1.0 14.4
2015-Apr-28 12:00N 42°07' E 005°31'125.3 14.5
2015-Apr-28 11:57N 42°08' E 005°30'0 0.0 14.5
2015-Apr-28 10:55N 42°08' E 005°30'0 0.0 14.5
2015-Apr-28 10:07N 42°08' E 005°30'2 0.6 14.6
2015-Apr-28 07:00N 42°10' E 005°29'4 2.3 14.5
2015-Apr-28 05:14N 42°13' E 005°31'0 0.0 14.5
2015-Apr-28 05:05N 42°13' E 005°31'0 0.0 14.5
2015-Apr-28 05:00N 42°13' E 005°31'0 0.0 14.5
2015-Apr-28 03:51N 42°13' E 005°31'0 0.0 14.5
2015-Apr-28 02:12N 42°13' E 005°31'6 1.4 14.4
2015-Apr-27 21:52N 42°19' E 005°32'1 1.6 14.8
2015-Apr-27 21:06N 42°20' E 005°31'0 4.3 14.9
2015-Apr-27 21:01N 42°20' E 005°30'121.1 14.9
2015-Apr-27 20:58N 42°21' E 005°30'1 1.0 15.0
2015-Apr-27 20:05N 42°22' E 005°29'3 1.4 15.1
2015-Apr-27 18:01N 42°23' E 005°26'0 0.0 15.5
2015-Apr-27 16:56N 42°23' E 005°26'2 1.0 15.8
2015-Apr-27 15:10N 42°24' E 005°24'0 0.0 16.0
2015-Apr-27 15:06N 42°24' E 005°24'0 2.0 16.0
2015-Apr-27 14:59N 42°24' E 005°23'1 0.7 16.0
2015-Apr-27 13:57N 42°24' E 005°23'0 0.5 16.0
2015-Apr-27 13:52N 42°24' E 005°23'1 0.7 16.0
2015-Apr-27 12:11N 42°25' E 005°22'112.6 16.1
2015-Apr-27 12:08N 42°25' E 005°21'2 0.5 16.1
2015-Apr-27 08:02N 42°25' E 005°18'112.0
2015-Apr-27 07:57N 42°26' E 005°17'0 0.0 16.1
2015-Apr-27 07:13N 42°26' E 005°17'0 1.3 16.1
2015-Apr-27 06:55N 42°25' E 005°17'0 0.2 16.1
2015-Apr-27 05:51N 42°25' E 005°17'1 1.0 16.1
2015-Apr-27 05:14N 42°25' E 005°17'0 4.3 16.2
2015-Apr-27 05:07N 42°24' E 005°17'0 0.0 16.2
2015-Apr-27 04:11N 42°24' E 005°17'0 1.5 16.2
2015-Apr-27 04:05N 42°24' E 005°17'2 0.3 16.2
2015-Apr-26 22:05N 42°22' E 005°16'3 0.7 16.3
2015-Apr-26 16:58N 42°19' E 005°15'0 0.0 16.4
2015-Apr-26 16:54N 42°19' E 005°15'1 0.8 16.4
2015-Apr-26 15:10N 42°18' E 005°15'1 0.9 16.3
2015-Apr-26 14:08N 42°17' E 005°16'2 0.6 16.3
2015-Apr-26 10:02N 42°15' E 005°18'0 3.6 16.0
2015-Apr-26 09:55N 42°15' E 005°18'0 0.0 16.0
2015-Apr-26 09:08N 42°15' E 005°18'0 1.9 15.9
2015-Apr-26 09:02N 42°15' E 005°18'1 0.5 15.9
2015-Apr-26 07:04N 42°14' E 005°17'0 0.1 15.9
2015-Apr-26 05:59N 42°14' E 005°17'0 1.6 15.9
2015-Apr-26 05:55N 42°14' E 005°17'1 0.6 15.9
2015-Apr-26 04:16N 42°13' E 005°17'0 0.0 15.9
2015-Apr-26 04:14N 42°13' E 005°17'2 0.8 15.9
2015-Apr-26 00:58N 42°11' E 005°17'230.3 16.0
2015-Apr-26 00:55N 42°09' E 005°18'1 0.3 16.0
2015-Apr-25 20:54N 42°09' E 005°19'1 0.9 16.1
2015-Apr-25 20:09N 42°08' E 005°19'0 1.1 16.1
2015-Apr-25 20:05N 42°08' E 005°19'1 7.8
2015-Apr-25 20:00N 42°08' E 005°20'0 0.3
2015-Apr-25 19:03N 42°08' E 005°20'1 0.4 16.1
2015-Apr-25 17:45N 42°08' E 005°20'1 0.9 16.1
2015-Apr-25 17:10N 42°08' E 005°20'0 1.1 16.1
2015-Apr-25 16:58N 42°07' E 005°20'0 0.0 16.1
2015-Apr-25 16:03N 42°07' E 005°20'2 0.5 16.1
2015-Apr-25 11:59N 42°05' E 005°19'0 0.1 16.2
2015-Apr-25 11:08N 42°05' E 005°19'0 1.9 16.2
2015-Apr-25 10:56N 42°05' E 005°20'0 0.0
2015-Apr-25 10:52N 42°05' E 005°20'1 0.3
2015-Apr-25 07:59N 42°04' E 005°19'1 0.3 16.1
2015-Apr-25 03:57N 42°03' E 005°18'1 0.5 16.2
2015-Apr-25 01:06N 42°02' E 005°17'1 0.6 16.2
2015-Apr-24 22:53N 42°01' E 005°16'0 5.8 16.4
2015-Apr-24 22:49N 42°01' E 005°16'0 0.0 16.4
2015-Apr-24 22:07N 42°01' E 005°16'0 4.4
2015-Apr-24 22:02N 42°01' E 005°16'1 0.3 16.5
2015-Apr-24 18:07N 41°59' E 005°16'0 1.2 16.7
2015-Apr-24 17:54N 41°59' E 005°16'3 0.8 16.7
2015-Apr-24 13:54N 41°58' E 005°12'1 0.3 16.7
2015-Apr-24 11:08N 41°57' E 005°11'1 6.2 16.0
2015-Apr-24 11:01N 41°56' E 005°11'1 0.5 16.0
2015-Apr-24 09:50N 41°56' E 005°11'0 0.6 15.9
2015-Apr-24 09:06N 41°55' E 005°11'1 7.3 15.8
2015-Apr-24 09:01N 41°55' E 005°12'0 0.3 15.8
2015-Apr-24 08:06N 41°55' E 005°12'0 0.0 15.7
2015-Apr-24 07:22N 41°55' E 005°12'0 0.2 15.7
2015-Apr-24 05:45N 41°56' E 005°12'0 0.5 15.7
2015-Apr-24 05:06N 41°55' E 005°12'1 1.0 15.7
2015-Apr-24 04:08N 41°56' E 005°13'0 0.0 15.8
2015-Apr-24 02:59N 41°56' E 005°13'1 8.3 16.0
2015-Apr-24 02:52N 41°57' E 005°12'3 0.6 16.0
2015-Apr-23 20:50N 41°58' E 005°07'0 0.0
2015-Apr-23 20:39N 41°58' E 005°07'0 0.0 16.0
2015-Apr-23 20:05N 41°58' E 005°07'0 0.0 16.1
2015-Apr-23 19:57N 41°58' E 005°07'  
Track history (hours):
 
Tides and Currents Weather Stations Pressure Air Temp Water Temp Dewpoint Dewpoint Depression Visibility Wind Speed Wind Dir Waves Ship Positions

Drifting buoy 62910

Last reported at 2015-May-03 19:51 UTC. Time now 2015-May-03 21:56 UTC.
Position N 42°14' E 005°55'.

Water temperature 15.9 ° C

Date/timePositionNaut miles runAvg speedWind from/ knotsBaromVisibWave heightAir tempDewpointWater temp
2015-May-03 19:51N 42°14' E 005°55'0 0.0 15.9
2015-May-03 19:46N 42°14' E 005°55'1 1.1 15.9
2015-May-03 18:56N 42°13' E 005°54'0 0.6 16.0
2015-May-03 18:12N 42°13' E 005°55'0 0.0 16.0
2015-May-03 18:03N 42°13' E 005°55'1 0.5 16.0
2015-May-03 16:05N 42°12' E 005°54'2 0.6 16.0
2015-May-03 12:49N 42°10' E 005°55'1 0.3 16.2
2015-May-03 10:58N 42°09' E 005°55'0 7.3 15.7
2015-May-03 10:54N 42°09' E 005°55'0 0.2 15.7
2015-May-03 09:15N 42°08' E 005°55'0 0.4 15.4
2015-May-03 08:26N 42°08' E 005°55'0 2.3 15.3
2015-May-03 08:20N 42°08' E 005°55'1 0.5 15.3
2015-May-03 06:26N 42°07' E 005°54'0 0.7 15.3
2015-May-03 06:22N 42°07' E 005°54'0 0.6 15.3
2015-May-03 06:03N 42°07' E 005°54'1 0.6 15.3
2015-May-03 04:10N 42°06' E 005°54'1 6.3 15.3
2015-May-03 03:59N 42°05' E 005°53'0 0.0 15.3
2015-May-03 03:02N 42°05' E 005°53'0 0.9 15.4
2015-May-03 02:59N 42°05' E 005°53'213.0 15.4
2015-May-03 02:52N 42°03' E 005°54'3 0.5 15.4
2015-May-02 21:50N 42°01' E 005°56'0 0.5 15.5
2015-May-02 20:57N 42°01' E 005°56'0 7.0 15.5
2015-May-02 20:53N 42°01' E 005°56'0 0.3 15.5
2015-May-02 20:00N 42°00' E 005°56'1 0.3 15.5
2015-May-02 18:11N 42°00' E 005°57'1 0.7 15.6
2015-May-02 17:02N 41°60' E 005°56'2 0.7 15.6
2015-May-02 14:07N 41°58' E 005°55'1 8.1 15.5
2015-May-02 14:02N 41°57' E 005°55'0 0.0 15.5
2015-May-02 13:00N 41°57' E 005°55'1 0.8 15.3
2015-May-02 12:01N 41°57' E 005°56'0 0.5 15.2
2015-May-02 11:12N 41°56' E 005°55'0 0.1
2015-May-02 05:52N 41°56' E 005°56'2 2.4 14.7
2015-May-02 05:06N 41°54' E 005°56'0 0.0 14.7
2015-May-02 04:52N 41°54' E 005°56'2 1.3 14.7
2015-May-02 03:10N 41°56' E 005°55'2 0.4 14.7
2015-May-01 22:04N 41°55' E 005°53'2 0.4 14.8
2015-May-01 15:58N 41°54' E 005°51'1 0.9 15.0
2015-May-01 15:16N 41°54' E 005°51'1 1.5 15.0
2015-May-01 14:51N 41°54' E 005°52'2 2.9 15.0
2015-May-01 14:14N 41°54' E 005°49'1 0.1 15.0
2015-May-01 10:00N 41°54' E 005°49'1 0.8 14.9
2015-May-01 09:05N 41°53' E 005°48'1 1.2 14.9
2015-May-01 08:12N 41°53' E 005°47'0 0.0 14.8
2015-May-01 07:05N 41°53' E 005°47'1 0.6 14.8
2015-May-01 06:10N 41°52' E 005°46'0 5.5 14.8
2015-May-01 06:05N 41°52' E 005°46'0 0.0 14.8
2015-May-01 05:33N 41°52' E 005°46'0 0.6 14.8
2015-May-01 05:26N 41°52' E 005°46'1 0.7 14.8
2015-May-01 04:26N 41°51' E 005°46'0 0.2 14.8
2015-May-01 03:54N 41°51' E 005°46'0 1.1 14.8
2015-May-01 03:47N 41°51' E 005°46'0 0.0 14.8
2015-May-01 03:40N 41°51' E 005°46'0 0.3 14.9
2015-May-01 03:20N 41°51' E 005°46'0 0.0 14.9
2015-May-01 03:17N 41°51' E 005°46'2 0.6 14.9
2015-Apr-30 23:56N 41°50' E 005°44'0 0.1 14.9
2015-Apr-30 20:52N 41°49' E 005°45'0 0.4 15.1
2015-Apr-30 19:54N 41°49' E 005°44'0 0.0 15.2
2015-Apr-30 19:46N 41°49' E 005°44'1 1.0 15.2
2015-Apr-30 19:06N 41°49' E 005°43'0 0.0 15.2
2015-Apr-30 18:09N 41°49' E 005°43'0 1.4 15.3
2015-Apr-30 17:52N 41°49' E 005°44'0 0.9 15.3
2015-Apr-30 17:20N 41°49' E 005°43'0 0.0 15.3
2015-Apr-30 16:29N 41°49' E 005°43'1 2.5 15.3
2015-Apr-30 16:14N 41°49' E 005°43'0 0.0 15.3
2015-Apr-30 16:07N 41°49' E 005°43'0 2.7 15.3
2015-Apr-30 16:00N 41°49' E 005°42'0 0.0 15.3
2015-Apr-30 15:02N 41°49' E 005°42'0 0.4 15.3
2015-Apr-30 14:30N 41°49' E 005°42'0 1.8 15.2
2015-Apr-30 14:25N 41°49' E 005°42'2 1.5 15.2
2015-Apr-30 13:23N 41°49' E 005°40'0 0.0
2015-Apr-30 13:18N 41°49' E 005°40'1 0.5 15.0
2015-Apr-30 11:35N 41°48' E 005°39'0 0.0 14.9
2015-Apr-30 11:07N 41°48' E 005°39'0 0.6 14.8
2015-Apr-30 10:19N 41°48' E 005°39'0 0.0 14.7
2015-Apr-30 09:26N 41°48' E 005°39'1 0.8 14.7
2015-Apr-30 08:37N 41°48' E 005°40'0 0.0 14.7
2015-Apr-30 07:46N 41°48' E 005°40'0 0.0 14.6
2015-Apr-30 07:33N 41°48' E 005°40'0 0.3 14.6
2015-Apr-30 06:21N 41°48' E 005°40'0 0.0 14.6
2015-Apr-30 06:01N 41°48' E 005°40'0 0.0 14.6
2015-Apr-30 05:58N 41°48' E 005°40'0 5.4 14.6
2015-Apr-30 05:54N 41°49' E 005°40'0 0.2 14.6
2015-Apr-30 04:15N 41°49' E 005°40'1 1.0 14.7
2015-Apr-30 02:56N 41°50' E 005°40'0 0.0 14.7
2015-Apr-30 01:58N 41°50' E 005°40'2 1.3 14.7
2015-Apr-30 00:08N 41°52' E 005°37'0 0.0 14.8
2015-Apr-29 22:49N 41°52' E 005°37'0 0.0 14.9
2015-Apr-29 22:04N 41°52' E 005°37'1 1.4 14.9
2015-Apr-29 21:03N 41°52' E 005°35'1 0.2 15.0
2015-Apr-29 18:02N 41°52' E 005°35'0 0.2 15.3
2015-Apr-29 16:59N 41°52' E 005°35'0 1.3
2015-Apr-29 16:55N 41°52' E 005°35'0 0.5 15.6
2015-Apr-29 16:11N 41°51' E 005°34'0 0.0 15.6
2015-Apr-29 16:06N 41°51' E 005°34'0 0.3 15.6
2015-Apr-29 15:13N 41°52' E 005°35'3 0.5 15.4
2015-Apr-29 09:02N 41°55' E 005°35'0 0.0 14.5
2015-Apr-29 08:00N 41°55' E 005°35'1 0.3 14.4
2015-Apr-29 04:54N 41°55' E 005°34'0 0.6 14.3
2015-Apr-29 04:47N 41°55' E 005°34'2 1.3 14.3
2015-Apr-29 03:08N 41°57' E 005°33'0 0.0 14.3
2015-Apr-29 02:07N 41°57' E 005°33'0 0.0 14.2
2015-Apr-29 02:03N 41°57' E 005°33'210.6 14.2
2015-Apr-29 01:54N 41°59' E 005°32'1 0.1
2015-Apr-28 19:47N 41°59' E 005°32'0 0.3 14.2
2015-Apr-28 19:08N 41°59' E 005°33'1 9.5 14.3
2015-Apr-28 18:59N 42°00' E 005°33'1 0.9 14.3
2015-Apr-28 18:13N 42°01' E 005°32'6 1.0 14.4
2015-Apr-28 12:00N 42°07' E 005°31'125.3 14.5
2015-Apr-28 11:57N 42°08' E 005°30'0 0.0 14.5
2015-Apr-28 10:55N 42°08' E 005°30'0 0.0 14.5
2015-Apr-28 10:07N 42°08' E 005°30'2 0.6 14.6
2015-Apr-28 07:00N 42°10' E 005°29'4 2.3 14.5
2015-Apr-28 05:14N 42°13' E 005°31'0 0.0 14.5
2015-Apr-28 05:05N 42°13' E 005°31'0 0.0 14.5
2015-Apr-28 05:00N 42°13' E 005°31'0 0.0 14.5
2015-Apr-28 03:51N 42°13' E 005°31'0 0.0 14.5
2015-Apr-28 02:12N 42°13' E 005°31'6 1.4 14.4
2015-Apr-27 21:52N 42°19' E 005°32'1 1.6 14.8
2015-Apr-27 21:06N 42°20' E 005°31'0 4.3 14.9
2015-Apr-27 21:01N 42°20' E 005°30'121.1 14.9
2015-Apr-27 20:58N 42°21' E 005°30'1 1.0 15.0
2015-Apr-27 20:05N 42°22' E 005°29'3 1.4 15.1
2015-Apr-27 18:01N 42°23' E 005°26'0 0.0 15.5
2015-Apr-27 16:56N 42°23' E 005°26'2 1.0 15.8
2015-Apr-27 15:10N 42°24' E 005°24'0 0.0 16.0
2015-Apr-27 15:06N 42°24' E 005°24'0 2.0 16.0
2015-Apr-27 14:59N 42°24' E 005°23'1 0.7 16.0
2015-Apr-27 13:57N 42°24' E 005°23'0 0.5 16.0
2015-Apr-27 13:52N 42°24' E 005°23'1 0.7 16.0
2015-Apr-27 12:11N 42°25' E 005°22'112.6 16.1
2015-Apr-27 12:08N 42°25' E 005°21'2 0.5 16.1
2015-Apr-27 08:02N 42°25' E 005°18'112.0
2015-Apr-27 07:57N 42°26' E 005°17'0 0.0 16.1
2015-Apr-27 07:13N 42°26' E 005°17'0 1.3 16.1
2015-Apr-27 06:55N 42°25' E 005°17'0 0.2 16.1
2015-Apr-27 05:51N 42°25' E 005°17'1 1.0 16.1
2015-Apr-27 05:14N 42°25' E 005°17'0 4.3 16.2
2015-Apr-27 05:07N 42°24' E 005°17'0 0.0 16.2
2015-Apr-27 04:11N 42°24' E 005°17'0 1.5 16.2
2015-Apr-27 04:05N 42°24' E 005°17'2 0.3 16.2
2015-Apr-26 22:05N 42°22' E 005°16'3 0.7 16.3
2015-Apr-26 16:58N 42°19' E 005°15'0 0.0 16.4
2015-Apr-26 16:54N 42°19' E 005°15'1 0.8 16.4
2015-Apr-26 15:10N 42°18' E 005°15'1 0.9 16.3
2015-Apr-26 14:08N 42°17' E 005°16'2 0.6 16.3
2015-Apr-26 10:02N 42°15' E 005°18'0 3.6 16.0
2015-Apr-26 09:55N 42°15' E 005°18'0 0.0 16.0
2015-Apr-26 09:08N 42°15' E 005°18'0 1.9 15.9
2015-Apr-26 09:02N 42°15' E 005°18'1 0.5 15.9
2015-Apr-26 07:04N 42°14' E 005°17'0 0.1 15.9
2015-Apr-26 05:59N 42°14' E 005°17'0 1.6 15.9
2015-Apr-26 05:55N 42°14' E 005°17'1 0.6 15.9
2015-Apr-26 04:16N 42°13' E 005°17'0 0.0 15.9
2015-Apr-26 04:14N 42°13' E 005°17'2 0.8 15.9
2015-Apr-26 00:58N 42°11' E 005°17'230.3 16.0
2015-Apr-26 00:55N 42°09' E 005°18'1 0.3 16.0
2015-Apr-25 20:54N 42°09' E 005°19'1 0.9 16.1
2015-Apr-25 20:09N 42°08' E 005°19'0 1.1 16.1
2015-Apr-25 20:05N 42°08' E 005°19'1 7.8
2015-Apr-25 20:00N 42°08' E 005°20'0 0.3
2015-Apr-25 19:03N 42°08' E 005°20'1 0.4 16.1
2015-Apr-25 17:45N 42°08' E 005°20'1 0.9 16.1
2015-Apr-25 17:10N 42°08' E 005°20'0 1.1 16.1
2015-Apr-25 16:58N 42°07' E 005°20'0 0.0 16.1
2015-Apr-25 16:03N 42°07' E 005°20'2 0.5 16.1
2015-Apr-25 11:59N 42°05' E 005°19'0 0.1 16.2
2015-Apr-25 11:08N 42°05' E 005°19'0 1.9 16.2
2015-Apr-25 10:56N 42°05' E 005°20'0 0.0
2015-Apr-25 10:52N 42°05' E 005°20'1 0.3
2015-Apr-25 07:59N 42°04' E 005°19'1 0.3 16.1
2015-Apr-25 03:57N 42°03' E 005°18'1 0.5 16.2
2015-Apr-25 01:06N 42°02' E 005°17'1 0.6 16.2
2015-Apr-24 22:53N 42°01' E 005°16'0 5.8 16.4
2015-Apr-24 22:49N 42°01' E 005°16'0 0.0 16.4
2015-Apr-24 22:07N 42°01' E 005°16'0 4.4
2015-Apr-24 22:02N 42°01' E 005°16'1 0.3 16.5
2015-Apr-24 18:07N 41°59' E 005°16'0 1.2 16.7
2015-Apr-24 17:54N 41°59' E 005°16'3 0.8 16.7
2015-Apr-24 13:54N 41°58' E 005°12'1 0.3 16.7
2015-Apr-24 11:08N 41°57' E 005°11'1 6.2 16.0
2015-Apr-24 11:01N 41°56' E 005°11'1 0.5 16.0
2015-Apr-24 09:50N 41°56' E 005°11'0 0.6 15.9
2015-Apr-24 09:06N 41°55' E 005°11'1 7.3 15.8
2015-Apr-24 09:01N 41°55' E 005°12'0 0.3 15.8
2015-Apr-24 08:06N 41°55' E 005°12'0 0.0 15.7
2015-Apr-24 07:22N 41°55' E 005°12'0 0.2 15.7
2015-Apr-24 05:45N 41°56' E 005°12'0 0.5 15.7
2015-Apr-24 05:06N 41°55' E 005°12'1 1.0 15.7
2015-Apr-24 04:08N 41°56' E 005°13'0 0.0 15.8
2015-Apr-24 02:59N 41°56' E 005°13'1 8.3 16.0
2015-Apr-24 02:52N 41°57' E 005°12'3 0.6 16.0
2015-Apr-23 20:50N 41°58' E 005°07'0 0.0
2015-Apr-23 20:39N 41°58' E 005°07'0 0.0 16.0
2015-Apr-23 20:05N 41°58' E 005°07'0 0.0 16.1
2015-Apr-23 19:57N 41°58' E 005°07'  

Dump ship's entire track history